Baraboo Wisconsin Dells Airport


Codes: KDLL/
Name: Baraboo Wisconsin Dells Airport
City: Baraboo
Country: United States
Elevation: 979 ft.

Photos at Baraboo Wisconsin Dells Airport


   Photos courtesy of SpottingLog. You can add your own sightings and photos by signing up for a free trial today.



No photos found.

Weather at Baraboo Wisconsin Dells Airport


Time (UTC)DescriptionTempratureWindCloud coverageVisibilityPressureHumidity
17-Jun-2024 06:00Scattered Clouds24°C11 mph, SW40%10000m1009hPa84%
17-Jun-2024 09:00Scattered Clouds23°C11 mph, SW31%10000m1009hPa87%
17-Jun-2024 12:00Light Rain23°C9 mph, S46%10000m1010hPa92%
17-Jun-2024 15:00Light Rain25°C11 mph, SW99%10000m1010hPa86%
17-Jun-2024 18:00Light Rain27°C13 mph, SW100%10000m1011hPa77%
17-Jun-2024 21:00Light Rain26°C11 mph, SW100%10000m1010hPa83%
18-Jun-2024 00:00Light Rain24°C13 mph, S100%10000m1009hPa85%
18-Jun-2024 03:00Overcast Clouds25°C13 mph, S100%10000m1010hPa74%
18-Jun-2024 06:00Broken Clouds23°C13 mph, S76%10000m1011hPa81%
18-Jun-2024 09:00Few Clouds22°C13 mph, S21%10000m1010hPa89%
18-Jun-2024 12:00Scattered Clouds23°C13 mph, S30%10000m1011hPa92%
18-Jun-2024 15:00Scattered Clouds26°C18 mph, S38%10000m1011hPa80%
18-Jun-2024 18:00Scattered Clouds29°C20 mph, S29%10000m1011hPa71%
18-Jun-2024 21:00Light Rain29°C20 mph, S3%10000m1011hPa75%
19-Jun-2024 00:00Clear Sky27°C18 mph, S1%10000m1012hPa79%
19-Jun-2024 03:00Clear Sky25°C18 mph, S0%10000m1013hPa81%
19-Jun-2024 06:00Clear Sky24°C18 mph, SW4%10000m1014hPa84%
19-Jun-2024 09:00Broken Clouds23°C18 mph, SW80%10000m1016hPa81%
19-Jun-2024 12:00Light Rain21°C9 mph, SW90%10000m1019hPa94%
19-Jun-2024 15:00Light Rain23°C9 mph, W70%10000m1021hPa81%
19-Jun-2024 18:00Light Rain24°C9 mph, W81%10000m1023hPa77%
19-Jun-2024 21:00Light Rain23°C9 mph, NW100%10000m1023hPa77%
20-Jun-2024 00:00Light Rain21°C7 mph, N100%10000m1024hPa85%
20-Jun-2024 03:00Overcast Clouds19°C4 mph, NE100%10000m1025hPa89%
20-Jun-2024 06:00Light Rain18°C2 mph, NE100%10000m1026hPa95%
20-Jun-2024 09:00Light Rain18°C4 mph, E100%10000m1026hPa96%
20-Jun-2024 12:00Overcast Clouds19°C4 mph, E99%10000m1027hPa97%
20-Jun-2024 15:00Light Rain19°C7 mph, N100%0m1027hPa98%
20-Jun-2024 18:00Overcast Clouds20°C9 mph, E100%10000m1026hPa95%
20-Jun-2024 21:00Light Rain24°C9 mph, SE99%10000m1024hPa82%
21-Jun-2024 00:00Light Rain23°C4 mph, SE97%10000m1023hPa91%
21-Jun-2024 03:00Light Rain21°C4 mph, SE99%10000m1024hPa95%
21-Jun-2024 06:00Light Rain21°C4 mph, S100%10000m1023hPa97%
21-Jun-2024 09:00Light Rain20°C4 mph, S100%10000m1022hPa98%
21-Jun-2024 12:00Overcast Clouds21°C4 mph, S85%10000m1022hPa95%
21-Jun-2024 15:00Light Rain26°C9 mph, SW35%10000m1022hPa81%
21-Jun-2024 18:00Light Rain28°C9 mph, SW19%10000m1020hPa63%
21-Jun-2024 21:00Light Rain28°C11 mph, SW15%10000m1018hPa65%
22-Jun-2024 00:00Light Rain26°C9 mph, SW11%10000m1017hPa81%
22-Jun-2024 03:00Light Rain22°C7 mph, SW3%10000m1017hPa95%